Time;durP1;ratioP1;P1;durP2;ratioP2;P2;SDS_P1;SDS_P2;PMS_P1;PMS_P2;Temp;Humidity;BMP_temperature;BMP_pressure;BME280_temperature;BME280_humidity;BME280_pressure;Samples;Min_cycle;Max_cycle;Signal;HPM_P1;HPM_P2
2022/10/09 00:00:49;;;;;;;5.03;4.00;;;;;;;14.81;100.00;97167.50;4967406;28;20082;-42
2022/10/09 00:03:18;;;;;;;5.90;4.18;;;;;;;14.91;100.00;97168.25;4967673;28;20819;-42
2022/10/09 00:05:46;;;;;;;5.90;4.20;;;;;;;14.86;100.00;97170.50;4966812;28;20154;-41
2022/10/09 00:08:14;;;;;;;5.97;4.15;;;;;;;14.94;100.00;97160.81;4968320;28;20081;-41
2022/10/09 00:10:43;;;;;;;9.07;3.95;;;;;;;14.65;100.00;97170.84;4967272;28;20062;-42
2022/10/09 00:13:12;;;;;;;5.60;3.72;;;;;;;14.76;100.00;97177.72;4966112;28;20074;-45
2022/10/09 00:15:44;;;;;;;5.38;3.83;;;;;;;14.95;100.00;97166.94;4970079;28;20094;-45
2022/10/09 00:18:15;;;;;;;4.30;3.30;;;;;;;14.91;100.00;97161.09;4966846;28;20592;-43
2022/10/09 00:20:45;;;;;;;5.93;3.30;;;;;;;14.95;100.00;97162.47;4969513;28;20093;-43
2022/10/09 00:23:16;;;;;;;6.43;4.57;;;;;;;14.93;100.00;97155.63;4968840;28;20097;-47
2022/10/09 00:25:50;;;;;;;;;;;;;;;15.18;100.00;97156.66;4965219;28;20078;-46
2022/10/09 00:28:19;;;;;;;8.95;4.55;;;;;;;14.91;100.00;97155.78;4967967;28;19972;-42
2022/10/09 00:30:48;;;;;;;11.73;3.80;;;;;;;14.85;100.00;97145.78;4969234;28;20078;-41
2022/10/09 00:33:17;;;;;;;9.40;4.18;;;;;;;14.78;100.00;97154.53;4968795;28;20086;-43
2022/10/09 00:35:45;;;;;;;5.05;3.65;;;;;;;14.42;100.00;97147.41;4966814;28;20491;-47
2022/10/09 00:38:14;;;;;;;6.30;3.45;;;;;;;14.10;100.00;97147.06;4967818;28;20125;-42
2022/10/09 00:40:42;;;;;;;5.65;3.80;;;;;;;14.16;100.00;97155.25;4967743;28;20079;-44
2022/10/09 00:43:14;;;;;;;6.00;3.88;;;;;;;13.84;100.00;97146.94;4963170;28;20093;-42
2022/10/09 00:45:46;;;;;;;4.05;3.30;;;;;;;13.96;100.00;97149.22;4969306;28;20081;-42
2022/10/09 00:48:17;;;;;;;7.10;3.55;;;;;;;14.18;100.00;97139.19;4969001;28;20407;-44
2022/10/09 00:50:48;;;;;;;4.05;3.28;;;;;;;14.23;100.00;97143.06;4967886;28;20125;-45
2022/10/09 00:53:18;;;;;;;4.28;3.03;;;;;;;14.09;100.00;97137.44;4967039;28;20748;-45
2022/10/09 00:55:46;;;;;;;21.00;3.15;;;;;;;14.14;100.00;97136.00;4966253;28;20143;-46
2022/10/09 00:58:14;;;;;;;21.13;3.63;;;;;;;13.87;100.00;97136.06;4963689;28;20085;-46
2022/10/09 01:00:43;;;;;;;4.78;3.00;;;;;;;13.63;100.00;97133.94;4970256;28;20608;-45
2022/10/09 01:03:11;;;;;;;3.10;2.80;;;;;;;12.87;100.00;97129.56;4966796;28;20074;-43
2022/10/09 01:05:45;;;;;;;5.25;3.08;;;;;;;12.79;100.00;97137.38;4964080;28;20478;-45
2022/10/09 01:08:16;;;;;;;9.73;3.00;;;;;;;12.94;100.00;97130.66;4967465;28;20087;-46
2022/10/09 01:10:49;;;;;;;4.20;3.25;;;;;;;13.32;100.00;97126.25;4967753;28;20071;-45
2022/10/09 01:13:23;;;;;;;4.47;3.22;;;;;;;13.00;100.00;97126.59;4966533;28;20563;-44
2022/10/09 01:15:54;;;;;;;3.83;3.28;;;;;;;13.27;100.00;97126.69;4962184;28;20082;-45
2022/10/09 01:18:27;;;;;;;3.70;3.35;;;;;;;13.07;100.00;97117.94;4968205;28;20082;-43
2022/10/09 01:20:59;;;;;;;3.38;3.08;;;;;;;13.50;100.00;97121.84;4968477;28;20078;-46
2022/10/09 01:24:01;;;;;;;4.65;3.13;;;;;;;13.65;100.00;97111.59;4963855;28;20071;-47
2022/10/09 01:26:55;;;;;;;4.57;3.15;;;;;;;13.37;100.00;97121.34;4962664;28;20074;-45
2022/10/09 01:29:24;;;;;;;7.53;3.67;;;;;;;12.82;100.00;97116.75;4964838;28;20082;-44
2022/10/09 01:31:53;;;;;;;23.55;4.13;;;;;;;12.41;100.00;97122.34;4965752;28;20082;-42
2022/10/09 01:34:21;;;;;;;28.00;3.90;;;;;;;11.87;100.00;97124.53;4966258;28;20093;-41
2022/10/09 01:36:50;;;;;;;20.17;4.68;;;;;;;12.57;100.00;97118.19;4967787;28;20133;-44
2022/10/09 01:39:21;;;;;;;5.05;3.60;;;;;;;13.01;100.00;97110.59;4968148;28;20098;-47
2022/10/09 01:41:51;;;;;;;5.13;4.03;;;;;;;13.21;100.00;97108.72;4967659;28;20097;-44
2022/10/09 01:44:22;;;;;;;5.38;3.95;;;;;;;13.14;100.00;97104.13;4967230;28;20078;-43
2022/10/09 01:46:51;;;;;;;5.30;4.18;;;;;;;13.00;100.00;97108.06;4967723;28;20082;-43
2022/10/09 01:49:41;;;;;;;6.68;4.55;;;;;;;13.26;100.00;97098.53;4967760;28;21121;-45
2022/10/09 01:52:16;;;;;;;;;;;;;;;13.62;100.00;97092.50;4964917;28;20081;-42
2022/10/09 01:54:53;;;;;;;4.40;3.33;;;;;;;13.29;100.00;97095.59;4966850;28;19961;-43
2022/10/09 01:57:27;;;;;;;4.20;3.30;;;;;;;13.41;100.00;97088.28;4967869;28;20079;-49
2022/10/09 01:59:59;;;;;;;5.05;3.83;;;;;;;13.53;100.00;97084.47;4967045;28;20093;-43
2022/10/09 02:02:27;;;;;;;5.80;3.60;;;;;;;13.56;100.00;97082.47;4965722;28;20553;-42
2022/10/09 02:04:57;;;;;;;5.68;3.90;;;;;;;13.20;100.00;97085.84;4964756;28;20101;-47
2022/10/09 02:07:26;;;;;;;4.03;3.60;;;;;;;13.03;100.00;97076.00;4967805;28;20521;-42
2022/10/09 02:09:55;;;;;;;4.75;3.60;;;;;;;12.86;100.00;97068.81;4965683;28;20679;-43
2022/10/09 02:12:25;;;;;;;29.73;4.50;;;;;;;13.21;100.00;97068.13;4977015;28;20082;-42
2022/10/09 02:14:54;;;;;;;5.30;4.40;;;;;;;13.30;100.00;97062.00;4965683;28;20113;-51
2022/10/09 02:17:29;;;;;;;6.22;3.80;;;;;;;13.12;100.00;97067.19;4968355;28;20873;-40
2022/10/09 02:20:06;;;;;;;4.90;3.72;;;;;;;13.19;100.00;97070.94;4968341;28;20051;-45
2022/10/09 02:22:36;;;;;;;5.07;3.60;;;;;;;12.96;100.00;97065.16;4965923;28;20113;-42
2022/10/09 02:25:07;;;;;;;27.50;3.97;;;;;;;12.76;100.00;97069.66;4967634;28;20461;-42
2022/10/09 02:27:35;;;;;;;20.15;3.75;;;;;;;12.85;100.00;97067.16;4967892;28;20082;-45
2022/10/09 02:30:06;;;;;;;39.55;5.47;;;;;;;12.71;100.00;97071.91;4965603;28;20074;-46
2022/10/09 02:32:36;;;;;;;3.00;2.70;;;;;;;12.79;100.00;97066.72;4966388;28;20086;-42
2022/10/09 02:35:05;;;;;;;4.27;2.67;;;;;;;12.58;100.00;97066.09;4964427;28;20074;-41
2022/10/09 02:37:33;;;;;;;4.93;2.78;;;;;;;12.38;100.00;97057.34;4967681;28;20094;-44
2022/10/09 02:40:02;;;;;;;3.78;2.67;;;;;;;12.30;100.00;97073.09;4965993;28;20066;-41
2022/10/09 02:42:37;;;;;;;6.43;3.00;;;;;;;12.54;100.00;97056.78;4964449;28;20082;-45
2022/10/09 02:45:07;;;;;;;3.30;3.00;;;;;;;12.20;100.00;97072.25;4975811;28;20524;-43
2022/10/09 02:47:37;;;;;;;3.92;3.38;;;;;;;12.37;100.00;97060.97;4965493;28;20074;-42
2022/10/09 02:50:07;;;;;;;4.80;3.27;;;;;;;12.80;100.00;97054.31;4967228;28;20497;-46
2022/10/09 02:52:35;;;;;;;29.83;5.60;;;;;;;12.99;100.00;97058.75;4968652;28;20090;-44
2022/10/09 02:55:03;;;;;;;68.75;5.97;;;;;;;13.09;100.00;97056.06;4970307;28;20074;-41
2022/10/09 02:57:32;;;;;;;16.70;4.53;;;;;;;13.10;100.00;97053.25;4971097;28;20074;-46
2022/10/09 03:00:00;;;;;;;42.95;5.00;;;;;;;13.05;100.00;97052.88;4970753;28;20082;-42
2022/10/09 03:02:28;;;;;;;28.08;4.80;;;;;;;12.92;100.00;97055.84;4967467;28;20737;-42
2022/10/09 03:04:58;;;;;;;12.90;4.03;;;;;;;12.40;100.00;97054.56;4971421;28;20105;-42
2022/10/09 03:07:26;;;;;;;6.40;3.78;;;;;;;12.25;100.00;97062.94;4971111;28;20078;-42
2022/10/09 03:09:56;;;;;;;15.32;3.80;;;;;;;12.68;100.00;97052.84;4963987;28;20078;-47
2022/10/09 03:12:24;;;;;;;11.73;3.92;;;;;;;12.18;100.00;97047.75;4971507;28;20541;-45
2022/10/09 03:14:52;;;;;;;9.90;4.40;;;;;;;12.07;100.00;97051.38;4970369;28;20082;-46
2022/10/09 03:17:20;;;;;;;7.85;4.55;;;;;;;12.39;100.00;97051.09;4972026;28;20097;-44
2022/10/09 03:19:49;;;;;;;7.22;4.55;;;;;;;12.04;100.00;97054.28;4970624;28;20090;-41
2022/10/09 03:22:18;;;;;;;6.28;4.13;;;;;;;12.01;100.00;97047.50;4981011;28;20051;-42
2022/10/09 03:24:47;;;;;;;5.10;3.90;;;;;;;12.58;100.00;97040.47;4970261;28;20113;-44
2022/10/09 03:27:15;;;;;;;20.92;5.10;;;;;;;12.80;100.00;97047.25;4964825;28;20082;-43
2022/10/09 03:29:43;;;;;;;16.25;4.32;;;;;;;12.88;100.00;97033.28;4970049;28;20560;-44
2022/10/09 03:32:11;;;;;;;4.60;3.75;;;;;;;12.66;100.00;97036.25;4970298;28;20109;-48
2022/10/09 03:34:39;;;;;;;4.80;3.92;;;;;;;12.30;100.00;97036.91;4970809;28;20085;-47
2022/10/09 03:37:26;;;;;;;4.07;3.40;;;;;;;12.32;100.00;97032.31;4971933;28;20573;-47
2022/10/09 03:39:55;;;;;;;16.10;4.07;;;;;;;12.61;100.00;97030.59;4970012;28;20151;-44
2022/10/09 03:42:23;;;;;;;5.53;3.80;;;;;;;11.92;100.00;97047.50;4969375;28;20090;-45
2022/10/09 03:44:51;;;;;;;14.88;3.72;;;;;;;12.02;100.00;97043.03;4965978;28;20083;-43
2022/10/09 03:47:20;;;;;;;18.70;4.20;;;;;;;12.38;100.00;97030.91;4966678;28;20086;-45
2022/10/09 03:49:48;;;;;;;25.75;4.47;;;;;;;12.34;100.00;97040.09;4968741;28;20085;-44
2022/10/09 03:52:16;;;;;;;19.67;4.20;;;;;;;12.46;100.00;97033.69;4969258;28;20082;-43
2022/10/09 03:54:46;;;;;;;23.42;4.50;;;;;;;12.48;100.00;97036.19;4964008;28;20093;-42
2022/10/09 03:57:14;;;;;;;23.87;4.23;;;;;;;12.47;100.00;97038.00;4968352;28;20082;-42
2022/10/09 03:59:42;;;;;;;14.30;4.13;;;;;;;12.04;100.00;97041.94;4969078;28;20089;-43
2022/10/09 04:02:11;;;;;;;19.30;3.88;;;;;;;11.98;100.00;97041.66;4969952;28;20084;-47
2022/10/09 04:04:39;;;;;;;21.02;4.20;;;;;;;11.98;100.00;97046.94;4964739;28;20534;-45
2022/10/09 04:07:07;;;;;;;17.00;4.50;;;;;;;12.08;100.00;97047.78;4966708;28;20098;-43
2022/10/09 04:09:35;;;;;;;15.07;4.50;;;;;;;12.35;100.00;97033.81;4969327;28;20361;-43
2022/10/09 04:12:05;;;;;;;28.92;4.88;;;;;;;12.32;100.00;97032.31;4967550;28;20074;-42
2022/10/09 04:14:34;;;;;;;18.88;4.82;;;;;;;11.93;100.00;97039.41;4967295;28;20085;-44
2022/10/09 04:17:02;;;;;;;18.75;5.10;;;;;;;12.01;100.00;97047.50;4968916;28;20082;-43
2022/10/09 04:19:30;;;;;;;9.07;5.20;;;;;;;11.95;100.00;97044.59;4968443;28;20078;-41
2022/10/09 04:21:58;;;;;;;7.50;4.40;;;;;;;11.92;100.00;97031.63;4967224;28;20086;-44
2022/10/09 04:24:27;;;;;;;9.80;4.10;;;;;;;11.82;100.00;97037.72;4964461;28;20537;-43
2022/10/09 04:26:55;;;;;;;16.25;4.97;;;;;;;12.07;100.00;97041.63;4965192;28;20090;-41
2022/10/09 04:29:25;;;;;;;19.15;5.20;;;;;;;12.06;100.00;97042.63;4969828;28;20094;-42
2022/10/09 04:31:53;;;;;;;8.95;4.35;;;;;;;11.43;100.00;97041.28;4968749;28;20468;-41
2022/10/09 04:34:21;;;;;;;8.02;4.30;;;;;;;11.44;100.00;97040.31;4969470;28;20093;-41
2022/10/09 04:36:50;;;;;;;10.68;4.72;;;;;;;12.03;100.00;97034.13;4969188;28;20085;-47
2022/10/09 04:39:18;;;;;;;9.20;4.63;;;;;;;11.83;100.00;97034.09;4967464;28;20557;-41
2022/10/09 04:41:46;;;;;;;17.75;5.30;;;;;;;12.07;100.00;97030.22;4969268;28;20081;-42
2022/10/09 04:44:14;;;;;;;29.25;6.07;;;;;;;12.00;100.00;97029.13;4967501;28;20560;-41
2022/10/09 04:46:44;;;;;;;25.15;6.63;;;;;;;11.55;100.00;97040.19;4963539;28;20066;-46
2022/10/09 04:49:13;;;;;;;24.37;6.07;;;;;;;11.48;100.00;97039.06;4968570;28;20467;-43
2022/10/09 04:51:41;;;;;;;15.23;5.38;;;;;;;11.93;100.00;97042.06;4968484;28;20075;-45
2022/10/09 04:54:10;;;;;;;14.13;6.07;;;;;;;11.64;100.00;97048.13;4966022;28;20090;-42
2022/10/09 04:56:38;;;;;;;15.88;5.35;;;;;;;12.06;100.00;97044.44;4966105;28;20085;-44
2022/10/09 04:59:06;;;;;;;20.50;4.65;;;;;;;11.98;100.00;97039.84;4967004;28;20093;-46
2022/10/09 05:01:35;;;;;;;15.23;4.90;;;;;;;12.10;100.00;97033.44;4967683;28;20086;-44
2022/10/09 05:04:07;;;;;;;27.25;5.30;;;;;;;11.02;100.00;97036.00;4964130;28;20168;-41
2022/10/09 05:06:35;;;;;;;15.27;4.90;;;;;;;11.47;100.00;97032.94;4967458;28;20082;-41
2022/10/09 05:09:03;;;;;;;20.85;5.30;;;;;;;11.13;100.00;97033.25;4969127;28;20082;-47
2022/10/09 05:11:32;;;;;;;12.40;4.90;;;;;;;11.60;100.00;97030.88;4968024;28;20477;-45
2022/10/09 05:14:00;;;;;;;8.15;5.25;;;;;;;11.75;100.00;97031.31;4968025;28;20082;-44
2022/10/09 05:16:31;;;;;;;6.87;4.63;;;;;;;11.96;100.00;97033.03;4968353;28;20047;-43
2022/10/09 05:19:13;;;;;;;13.05;5.22;;;;;;;11.99;100.00;97041.50;4968130;28;20516;-45
2022/10/09 05:21:41;;;;;;;16.95;5.25;;;;;;;11.82;100.00;97042.16;4962728;28;20094;-46
2022/10/09 05:24:10;;;;;;;20.52;5.40;;;;;;;11.69;100.00;97042.41;4965759;28;20081;-44
2022/10/09 05:26:38;;;;;;;35.20;5.63;;;;;;;11.65;100.00;97035.75;4969102;28;20090;-44
2022/10/09 05:29:06;;;;;;;34.67;6.70;;;;;;;11.67;100.00;97036.47;4967771;28;20090;-42
2022/10/09 05:31:34;;;;;;;52.58;7.68;;;;;;;11.51;100.00;97034.34;4968345;28;20082;-42
2022/10/09 05:34:03;;;;;;;70.70;8.38;;;;;;;11.51;100.00;97044.06;4966645;28;20079;-45
2022/10/09 05:36:33;;;;;;;39.03;7.47;;;;;;;11.86;100.00;97033.84;4968540;28;20605;-43
2022/10/09 05:39:01;;;;;;;82.70;9.30;;;;;;;11.90;100.00;97031.75;4968014;28;20078;-48
2022/10/09 05:41:30;;;;;;;103.43;10.25;;;;;;;11.90;100.00;97028.28;4965474;28;20093;-43
2022/10/09 05:44:00;;;;;;;44.15;8.65;;;;;;;12.02;100.00;97027.19;4967139;28;20100;-45
2022/10/09 05:46:29;;;;;;;14.40;7.40;;;;;;;11.65;100.00;97030.47;4968021;28;20093;-42
2022/10/09 05:48:59;;;;;;;14.13;7.90;;;;;;;12.19;100.00;97023.00;4966588;28;20074;-44
2022/10/09 05:51:28;;;;;;;12.82;8.00;;;;;;;12.16;100.00;97018.81;4968796;28;20066;-47
2022/10/09 05:54:00;;;;;;;10.98;7.10;;;;;;;12.17;100.00;97015.19;4966441;28;20086;-43
2022/10/09 05:56:30;;;;;;;11.48;7.35;;;;;;;12.40;100.00;97015.72;4965791;28;20082;-42
2022/10/09 05:59:00;;;;;;;12.00;7.07;;;;;;;12.23;100.00;97019.94;4968235;28;20500;-43
2022/10/09 06:01:30;;;;;;;11.32;7.10;;;;;;;12.69;100.00;97020.09;4962371;28;20189;-43
2022/10/09 06:04:00;;;;;;;12.38;7.18;;;;;;;12.93;100.00;97022.25;4966442;28;20530;-45
2022/10/09 06:06:30;;;;;;;11.07;6.80;;;;;;;12.59;100.00;97021.00;4966395;28;20314;-44
2022/10/09 06:08:59;;;;;;;12.18;7.93;;;;;;;12.43;100.00;97015.44;4966891;28;20079;-45
2022/10/09 06:11:30;;;;;;;12.17;8.13;;;;;;;12.93;100.00;97017.78;4968183;28;20086;-43
2022/10/09 06:13:58;;;;;;;;;;;;;;;12.61;100.00;97020.00;4967719;28;20097;-47
2022/10/09 06:16:28;;;;;;;14.68;7.30;;;;;;;13.00;100.00;97016.22;4967709;28;20428;-43
2022/10/09 06:18:57;;;;;;;14.82;7.30;;;;;;;12.51;100.00;97020.03;4964303;28;20094;-45
2022/10/09 06:21:26;;;;;;;12.45;7.47;;;;;;;12.73;100.00;97022.34;4963361;28;20086;-44
2022/10/09 06:23:56;;;;;;;10.77;7.50;;;;;;;13.00;100.00;97024.16;4966004;28;20097;-45
2022/10/09 06:26:27;;;;;;;11.48;8.20;;;;;;;12.59;100.00;97034.22;4968337;28;20086;-42
2022/10/09 06:28:56;;;;;;;14.52;7.03;;;;;;;12.74;100.00;97028.47;4964396;28;20079;-44
2022/10/09 06:31:26;;;;;;;11.23;7.00;;;;;;;12.67;100.00;97020.25;4959258;28;20070;-40
2022/10/09 06:33:55;;;;;;;11.65;7.00;;;;;;;12.71;100.00;97032.22;4965759;28;20549;-40
2022/10/09 06:36:25;;;;;;;10.57;7.07;;;;;;;12.43;100.00;97028.69;4963093;28;20082;-47
2022/10/09 06:38:53;;;;;;;11.60;7.33;;;;;;;12.87;100.00;97028.97;4963757;28;20086;-44
2022/10/09 06:41:23;;;;;;;10.85;7.40;;;;;;;12.67;100.00;97036.13;4961255;28;21460;-41
2022/10/09 06:43:54;;;;;;;12.32;8.02;;;;;;;12.63;100.00;97033.91;4967705;28;20086;-45
2022/10/09 06:46:24;;;;;;;13.13;8.00;;;;;;;13.06;100.00;97020.94;4962162;28;20117;-43
2022/10/09 06:48:52;;;;;;;9.17;6.37;;;;;;;12.54;100.00;97033.78;4965141;28;20083;-44
2022/10/09 06:51:22;;;;;;;11.73;7.60;;;;;;;13.23;100.00;97031.75;4965749;28;20502;-48
2022/10/09 06:53:51;;;;;;;16.10;7.77;;;;;;;13.32;100.00;97027.41;4964617;28;20089;-42
2022/10/09 06:56:21;;;;;;;12.32;7.57;;;;;;;13.32;100.00;97025.59;4967624;28;20087;-43
2022/10/09 06:58:50;;;;;;;9.93;7.37;;;;;;;13.51;100.00;97027.28;4968084;28;20564;-40
2022/10/09 07:01:22;;;;;;;14.73;8.13;;;;;;;13.74;100.00;97036.50;4963743;28;21335;-43
2022/10/09 07:03:54;;;;;;;12.90;7.03;;;;;;;13.31;100.00;97045.09;4966192;28;20074;-43
2022/10/09 07:06:24;;;;;;;14.38;7.40;;;;;;;13.20;100.00;97045.28;4968672;28;20082;-43
2022/10/09 07:08:54;;;;;;;12.73;7.25;;;;;;;13.71;100.00;97033.31;4967761;28;20078;-44
2022/10/09 07:11:24;;;;;;;12.27;6.90;;;;;;;13.64;100.00;97037.53;4965999;28;20583;-42
2022/10/09 07:13:54;;;;;;;10.55;6.63;;;;;;;13.24;100.00;97039.56;4963460;28;20568;-44
2022/10/09 07:16:26;;;;;;;10.73;6.65;;;;;;;13.97;100.00;97041.34;4968079;28;20082;-46
2022/10/09 07:18:55;;;;;;;13.15;7.13;;;;;;;13.73;100.00;97042.78;4966639;28;20141;-44
2022/10/09 07:21:24;;;;;;;11.77;7.55;;;;;;;13.42;100.00;97042.28;4966164;28;20082;-41
2022/10/09 07:23:52;;;;;;;10.50;6.20;;;;;;;13.67;100.00;97038.06;4966570;28;20505;-43
2022/10/09 07:26:23;;;;;;;14.85;6.90;;;;;;;14.10;100.00;97036.50;4966740;28;20086;-42
2022/10/09 07:28:51;;;;;;;13.02;6.68;;;;;;;14.28;100.00;97040.94;4965083;28;20081;-42
2022/10/09 07:31:20;;;;;;;12.02;7.22;;;;;;;13.94;100.00;97045.16;4965270;28;20299;-42
2022/10/09 07:33:50;;;;;;;10.05;6.68;;;;;;;14.37;100.00;97034.72;4967214;28;20074;-42
2022/10/09 07:36:19;;;;;;;9.02;6.32;;;;;;;14.83;100.00;97038.91;4968770;28;20113;-42
2022/10/09 07:38:51;;;;;;;8.82;6.03;;;;;;;14.61;100.00;97047.38;4967048;28;20802;-47
2022/10/09 07:41:20;;;;;;;12.07;5.97;;;;;;;14.10;100.00;97052.41;4969067;28;20077;-42
2022/10/09 07:43:48;;;;;;;11.20;6.60;;;;;;;15.34;100.00;97053.09;4966792;28;20083;-43
2022/10/09 07:46:20;;;;;;;10.50;5.85;;;;;;;15.12;100.00;97048.34;4972047;28;20085;-42
2022/10/09 07:48:51;;;;;;;11.85;6.07;;;;;;;15.28;100.00;97047.56;4971243;28;20090;-42
2022/10/09 07:51:20;;;;;;;12.52;6.47;;;;;;;15.30;100.00;97045.59;4969870;28;20673;-42
2022/10/09 07:53:49;;;;;;;17.73;6.37;;;;;;;14.98;100.00;97048.94;4964249;28;20073;-41
2022/10/09 07:56:19;;;;;;;8.23;5.57;;;;;;;15.33;100.00;97043.47;4970140;28;20517;-40
2022/10/09 07:58:48;;;;;;;;;;;;;;;15.70;100.00;97046.78;4970845;28;20089;-42
2022/10/09 08:01:17;;;;;;;11.98;6.88;;;;;;;15.94;100.00;97043.34;4971751;28;19961;-42
2022/10/09 08:03:49;;;;;;;10.23;6.20;;;;;;;16.49;100.00;97037.38;4964309;28;20079;-42
2022/10/09 08:06:18;;;;;;;13.15;6.20;;;;;;;16.77;100.00;97030.72;4970109;28;20482;-42
2022/10/09 08:08:49;;;;;;;8.25;5.47;;;;;;;16.46;100.00;97035.06;4965207;28;20077;-42
2022/10/09 08:11:18;;;;;;;12.20;7.18;;;;;;;16.11;100.00;97042.38;4969086;28;20078;-40
2022/10/09 08:13:48;;;;;;;8.05;6.22;;;;;;;16.62;100.00;97035.06;4969437;28;20074;-41
2022/10/09 08:16:18;;;;;;;8.65;6.40;;;;;;;16.92;100.00;97038.00;4968151;28;20101;-43
2022/10/09 08:18:46;;;;;;;10.87;6.90;;;;;;;16.23;100.00;97035.72;4969019;28;20082;-43
2022/10/09 08:21:18;;;;;;;14.20;8.13;;;;;;;16.98;100.00;97032.00;4967760;28;20079;-46
2022/10/09 08:23:46;;;;;;;12.40;6.53;;;;;;;16.17;100.00;97040.84;4966673;28;20078;-44
2022/10/09 08:26:17;;;;;;;13.50;6.75;;;;;;;16.70;100.00;97029.69;4965988;28;20081;-42
2022/10/09 08:28:50;;;;;;;11.88;7.18;;;;;;;16.16;100.00;97034.72;4969043;28;20081;-47
2022/10/09 08:31:18;;;;;;;12.45;7.35;;;;;;;16.40;100.00;97025.06;4966926;28;20090;-45
2022/10/09 08:33:47;;;;;;;12.35;6.82;;;;;;;16.15;100.00;97022.41;4968504;28;20086;-43
2022/10/09 08:36:16;;;;;;;9.95;6.47;;;;;;;16.59;100.00;97022.91;4967490;28;20082;-43
2022/10/09 08:38:45;;;;;;;10.57;6.20;;;;;;;16.16;100.00;97029.38;4970179;28;20066;-42
2022/10/09 08:41:19;;;;;;;;;;;;;;;16.68;100.00;97022.88;4969910;28;20078;-41
2022/10/09 08:43:50;;;;;;;9.40;5.65;;;;;;;16.38;100.00;97031.41;4965694;28;19961;-41
2022/10/09 08:46:22;;;;;;;9.27;5.60;;;;;;;16.04;100.00;97033.38;4966027;28;20093;-44
2022/10/09 08:48:50;;;;;;;9.07;5.07;;;;;;;16.50;100.00;97020.41;4969163;28;20118;-41
2022/10/09 08:51:23;;;;;;;8.50;5.65;;;;;;;16.06;100.00;97015.41;4967004;28;20090;-45
2022/10/09 08:53:56;;;;;;;10.45;6.10;;;;;;;16.64;100.00;97024.22;4966159;28;20102;-45
2022/10/09 08:56:25;;;;;;;9.60;4.80;;;;;;;16.75;100.00;97018.56;4969527;28;20098;-45
2022/10/09 08:58:53;;;;;;;8.68;5.28;;;;;;;16.73;100.00;97013.38;4967481;28;20090;-46
2022/10/09 09:01:29;;;;;;;7.90;5.60;;;;;;;17.63;100.00;97012.25;4967030;28;20094;-46
2022/10/09 09:04:23;;;;;;;8.10;5.75;;;;;;;17.50;100.00;97013.63;4966169;28;20086;-44
2022/10/09 09:06:59;;;;;;;9.02;5.43;;;;;;;17.39;100.00;97002.53;4963151;28;20078;-46
2022/10/09 09:09:36;;;;;;;11.35;5.88;;;;;;;18.19;100.00;97005.72;4967521;28;20101;-43
2022/10/09 09:12:12;;;;;;;9.32;6.03;;;;;;;17.43;100.00;97007.34;4962482;28;20105;-43
2022/10/09 09:14:50;;;;;;;11.00;5.78;;;;;;;17.65;100.00;96997.75;4970257;28;20070;-42
2022/10/09 09:17:23;;;;;;;8.85;5.25;;;;;;;17.00;100.00;97000.69;4965171;28;20086;-45
2022/10/09 09:20:00;;;;;;;9.07;5.40;;;;;;;17.88;100.00;96999.63;4967731;28;20089;-45
2022/10/09 09:22:30;;;;;;;8.60;5.93;;;;;;;18.01;100.00;96989.19;4964599;28;20078;-42
2022/10/09 09:24:59;;;;;;;8.30;5.82;;;;;;;17.76;100.00;96991.19;4969499;28;20078;-44
2022/10/09 09:27:29;;;;;;;7.05;4.72;;;;;;;17.64;100.00;96985.38;4965572;28;20087;-41
2022/10/09 09:30:01;;;;;;;9.25;5.50;;;;;;;17.70;100.00;96978.53;4965715;28;20066;-45
2022/10/09 09:32:31;;;;;;;10.52;5.22;;;;;;;18.05;100.00;96971.81;4967441;28;20507;-44
2022/10/09 09:35:05;;;;;;;8.20;5.40;;;;;;;18.06;100.00;96981.47;4966490;28;20090;-42
2022/10/09 09:37:36;;;;;;;8.43;4.75;;;;;;;18.13;100.00;96976.25;4967803;28;20085;-46
2022/10/09 09:40:05;;;;;;;7.60;5.00;;;;;;;17.51;100.00;96975.28;4968702;28;20442;-43
2022/10/09 09:42:55;;;;;;;9.23;5.20;;;;;;;17.73;100.00;96980.84;4962823;28;20078;-45
2022/10/09 09:45:25;;;;;;;7.85;4.40;;;;;;;17.75;100.00;96966.31;4969131;28;20493;-45
2022/10/09 09:47:56;;;;;;;8.95;4.78;;;;;;;18.81;100.00;96964.59;4967117;28;20098;-41
2022/10/09 09:50:28;;;;;;;;;;;;;;;17.95;100.00;96966.69;4968218;28;20560;-42
2022/10/09 09:53:25;;;;;;;7.43;4.43;;;;;;;18.14;100.00;96962.72;4963148;28;19957;-42
2022/10/09 09:55:54;;;;;;;9.23;4.97;;;;;;;19.16;100.00;96955.00;4965283;28;20082;-44
2022/10/09 09:58:23;;;;;;;8.88;4.22;;;;;;;18.10;100.00;96952.56;4967957;28;20081;-41
2022/10/09 10:00:55;;;;;;;8.85;4.85;;;;;;;18.58;100.00;96953.97;4968532;28;20097;-45
2022/10/09 10:03:24;;;;;;;7.20;4.20;;;;;;;18.97;100.00;96958.25;4964747;28;20070;-45
2022/10/09 10:05:52;;;;;;;8.80;4.80;;;;;;;18.44;100.00;96952.09;4965509;28;20086;-45
2022/10/09 10:08:24;;;;;;;6.25;4.22;;;;;;;18.30;100.00;96940.38;4966934;28;20097;-41
2022/10/09 10:10:54;;;;;;;12.35;5.00;;;;;;;18.65;100.00;96948.72;4968163;28;20881;-43
2022/10/09 10:13:24;;;;;;;6.97;4.38;;;;;;;18.39;100.00;96939.31;4966666;28;20513;-45
2022/10/09 10:15:54;;;;;;;9.70;4.90;;;;;;;19.00;100.00;96947.19;4966616;28;20094;-40
2022/10/09 10:18:24;;;;;;;8.13;5.70;;;;;;;19.13;100.00;96951.88;4967842;28;20098;-43
2022/10/09 10:20:55;;;;;;;7.50;4.93;;;;;;;19.65;100.00;96941.00;4964424;28;20105;-44
2022/10/09 10:23:35;;;;;;;6.78;4.55;;;;;;;19.74;100.00;96928.31;4965126;28;20082;-41
2022/10/09 10:26:08;;;;;;;8.95;6.10;;;;;;;19.83;100.00;96929.03;4965021;28;20097;-46
2022/10/09 10:28:45;;;;;;;7.40;4.82;;;;;;;19.50;100.00;96931.31;4968671;28;20105;-48
2022/10/09 10:31:19;;;;;;;8.13;5.53;;;;;;;20.28;100.00;96919.75;4965857;28;20105;-41
2022/10/09 10:33:52;;;;;;;7.63;4.53;;;;;;;19.68;100.00;96924.56;4966308;28;20794;-44
2022/10/09 10:36:20;;;;;;;8.57;4.72;;;;;;;20.11;100.00;96918.38;4967393;28;20089;-41
2022/10/09 10:38:56;;;;;;;7.53;4.50;;;;;;;19.30;100.00;96926.56;4968057;28;20090;-42
2022/10/09 10:41:27;;;;;;;9.15;4.53;;;;;;;20.56;100.00;96921.63;4965913;28;20525;-45
2022/10/09 10:43:58;;;;;;;8.40;4.60;;;;;;;19.96;100.00;96915.78;4962902;28;20085;-47
2022/10/09 10:46:30;;;;;;;7.28;4.40;;;;;;;20.61;100.00;96908.44;4964850;28;20078;-44
2022/10/09 10:48:59;;;;;;;7.93;4.75;;;;;;;20.21;100.00;96910.81;4963531;28;20081;-45
2022/10/09 10:51:44;;;;;;;8.73;4.50;;;;;;;20.51;100.00;96902.59;4965124;28;20078;-43
2022/10/09 10:54:37;;;;;;;9.10;3.42;;;;;;;20.20;100.00;96898.47;4966931;28;20082;-45
2022/10/09 10:57:13;;;;;;;6.97;4.03;;;;;;;19.88;100.00;96910.53;4961105;28;20078;-41
2022/10/09 10:59:47;;;;;;;6.45;3.78;;;;;;;19.73;100.00;96905.25;4967036;28;20082;-42
2022/10/09 11:02:46;;;;;;;9.40;3.38;;;;;;;20.41;89.79;96910.16;4963466;28;20090;-43
2022/10/09 11:05:35;;;;;;;5.25;3.20;;;;;;;20.49;88.92;96899.28;4959789;28;20098;-41
2022/10/09 11:08:18;;;;;;;6.53;3.70;;;;;;;20.65;92.63;96895.47;4965378;28;20085;-42
2022/10/09 11:10:55;;;;;;;5.55;3.38;;;;;;;21.02;88.30;96889.69;4968868;28;20082;-43
2022/10/09 11:13:26;;;;;;;5.03;3.38;;;;;;;20.81;89.01;96901.34;4969363;28;20082;-48
2022/10/09 11:16:03;;;;;;;5.30;3.30;;;;;;;19.97;97.97;96895.19;4970935;28;20091;-47
2022/10/09 11:18:45;;;;;;;5.85;3.28;;;;;;;20.59;88.03;96887.22;4968970;28;20091;-46
2022/10/09 11:21:27;;;;;;;5.45;3.60;;;;;;;20.77;84.99;96878.66;4968940;28;20082;-42
2022/10/09 11:24:15;;;;;;;6.30;3.80;;;;;;;20.36;84.63;96876.72;4966061;28;20102;-42
2022/10/09 11:26:48;;;;;;;4.85;2.95;;;;;;;20.13;88.24;96884.16;4971336;28;20078;-42
2022/10/09 11:29:20;;;;;;;5.18;3.10;;;;;;;20.91;72.30;96870.66;4967243;28;20093;-43
2022/10/09 11:31:52;;;;;;;7.70;4.15;;;;;;;20.97;69.86;96857.28;4967892;28;20083;-41
2022/10/09 11:34:26;;;;;;;3.55;2.67;;;;;;;20.06;75.56;96859.19;4966953;28;20086;-41
2022/10/09 11:36:55;;;;;;;7.82;2.95;;;;;;;21.10;68.96;96854.66;4970735;28;20082;-44
2022/10/09 11:39:26;;;;;;;5.07;2.60;;;;;;;20.67;69.95;96853.25;4967582;28;20087;-43
2022/10/09 11:41:55;;;;;;;4.60;2.63;;;;;;;20.05;75.72;96854.88;4971344;28;20085;-43